createdAt,value
2023-05-19T00:01:18.736Z,49.20
2023-05-19T00:04:04.643Z,49.14
2023-05-19T00:06:32.406Z,49.69
2023-05-19T00:09:01.705Z,49.91
2023-05-19T00:11:28.922Z,49.94
2023-05-19T00:13:57.952Z,50.03
2023-05-19T00:16:26.121Z,50.26
2023-05-19T00:18:53.620Z,50.33
2023-05-19T00:21:20.459Z,50.42
2023-05-19T00:23:46.953Z,50.54
2023-05-19T00:26:13.584Z,50.87
2023-05-19T00:28:42.407Z,50.90
2023-05-19T00:31:09.014Z,50.93
2023-05-19T00:33:35.895Z,51.12
2023-05-19T00:36:03.613Z,51.24
2023-05-19T00:38:31.940Z,51.28
2023-05-19T00:41:00.814Z,51.49
2023-05-19T00:43:29.420Z,51.59
2023-05-19T00:45:56.809Z,51.96
2023-05-19T00:48:25.367Z,52.26
2023-05-19T00:50:54.330Z,53.03
2023-05-19T00:53:23.873Z,54.98
2023-05-19T00:55:50.536Z,55.68
2023-05-19T00:58:18.410Z,55.97
2023-05-19T01:00:45.162Z,55.72
2023-05-19T01:03:11.974Z,56.31
2023-05-19T01:05:44.103Z,56.90
2023-05-19T01:08:10.959Z,57.02
2023-05-19T01:10:37.792Z,57.47
2023-05-19T01:13:05.887Z,57.60
2023-05-19T01:15:55.787Z,57.47
2023-05-19T01:18:48.563Z,56.98
2023-05-19T01:22:00.416Z,57.01
2023-05-19T01:24:32.888Z,57.07
2023-05-19T01:27:41.504Z,57.23
2023-05-19T01:30:22.636Z,57.51
2023-05-19T01:32:52.689Z,57.58
2023-05-19T01:35:23.991Z,57.70
2023-05-19T01:37:57.589Z,58.04
2023-05-19T01:40:25.788Z,58.38
2023-05-19T01:42:57.312Z,58.65
2023-05-19T01:45:29.186Z,59.15
2023-05-19T01:47:58.638Z,59.64
2023-05-19T01:50:25.664Z,60.14
2023-05-19T01:52:53.085Z,60.64
2023-05-19T01:55:22.235Z,61.10
2023-05-19T01:58:06.224Z,61.48
2023-05-19T02:00:53.416Z,61.72
2023-05-19T02:03:42.740Z,62.41
2023-05-19T02:06:15.395Z,62.99
2023-05-19T02:08:50.687Z,63.57
2023-05-19T02:11:27.994Z,64.41
2023-05-19T02:13:59.898Z,64.51
2023-05-19T02:16:28.525Z,64.77
2023-05-19T02:18:55.745Z,64.91
2023-05-19T02:21:22.332Z,65.03
2023-05-19T02:23:50.273Z,65.07
2023-05-19T02:26:19.673Z,65.24
2023-05-19T02:28:46.309Z,65.67
2023-05-19T02:31:12.807Z,66.44
2023-05-19T02:33:39.401Z,66.81
2023-05-19T02:36:06.264Z,66.88
2023-05-19T02:38:32.962Z,66.81
2023-05-19T02:41:00.025Z,67.06
2023-05-19T02:43:26.636Z,67.09
2023-05-19T02:45:53.270Z,67.30
2023-05-19T02:48:20.128Z,67.27
2023-05-19T02:50:46.816Z,67.48
2023-05-19T02:53:13.369Z,67.74
2023-05-19T02:55:40.015Z,67.83
2023-05-19T02:58:06.813Z,67.85
2023-05-19T03:00:34.054Z,68.15
2023-05-19T03:03:02.060Z,68.32
2023-05-19T03:05:29.760Z,68.54
2023-05-19T03:07:56.482Z,68.54
2023-05-19T03:10:23.038Z,68.68
2023-05-19T03:12:50.324Z,68.87
2023-05-19T03:15:18.129Z,69.10
2023-05-19T03:17:44.920Z,69.22
2023-05-19T03:20:12.376Z,69.18
2023-05-19T03:22:39.204Z,69.35
2023-05-19T03:25:06.072Z,69.55
2023-05-19T03:27:32.836Z,69.50
2023-05-19T03:29:59.425Z,69.34
2023-05-19T03:32:26.503Z,69.35
2023-05-19T03:34:53.155Z,69.20
2023-05-19T03:37:19.740Z,69.26
2023-05-19T03:39:46.317Z,69.08
2023-05-19T03:42:13.754Z,69.10
2023-05-19T03:44:40.544Z,68.91
2023-05-19T03:47:07.346Z,68.76
2023-05-19T03:50:01.753Z,68.62
2023-05-19T03:52:47.502Z,68.53
2023-05-19T03:55:29.175Z,68.37
2023-05-19T03:57:56.478Z,68.32
2023-05-19T04:00:23.336Z,68.08
2023-05-19T04:02:51.108Z,68.07
2023-05-19T04:05:17.900Z,68.11
2023-05-19T04:07:46.040Z,68.00
2023-05-19T04:10:13.029Z,67.96
2023-05-19T04:12:40.033Z,67.89
2023-05-19T04:15:07.330Z,67.78
2023-05-19T04:17:34.423Z,67.65
2023-05-19T04:20:01.023Z,67.78
2023-05-19T04:22:28.615Z,67.79
2023-05-19T04:24:55.579Z,67.97
2023-05-19T04:27:22.427Z,67.92
2023-05-19T04:29:49.712Z,67.91
2023-05-19T04:32:18.872Z,68.14
2023-05-19T04:34:45.722Z,68.22
2023-05-19T04:37:19.602Z,68.29
2023-05-19T04:39:46.309Z,68.97
2023-05-19T04:42:13.191Z,69.31
2023-05-19T04:44:40.242Z,69.53
2023-05-19T04:47:08.115Z,69.61
2023-05-19T04:49:38.491Z,69.34
2023-05-19T04:52:12.518Z,69.08
2023-05-19T04:54:41.214Z,69.23
2023-05-19T04:57:09.812Z,69.40
2023-05-19T04:59:37.823Z,69.02
2023-05-19T05:02:06.442Z,68.82
2023-05-19T05:04:35.517Z,68.48
2023-05-19T05:07:02.373Z,68.73
2023-05-19T05:11:18.901Z,68.56
2023-05-19T05:13:47.265Z,68.48
2023-05-19T05:16:15.341Z,68.54
2023-05-19T05:18:44.640Z,68.47
2023-05-19T05:21:12.520Z,68.35
2023-05-19T05:23:40.647Z,67.91
2023-05-19T05:28:15.658Z,67.50
2023-05-19T05:30:43.806Z,67.63
2023-05-19T05:33:12.056Z,67.53
2023-05-19T05:35:39.635Z,67.32
2023-05-19T05:38:07.096Z,67.44
2023-05-19T05:40:34.353Z,67.19
2023-05-19T05:43:01.505Z,67.08
2023-05-19T05:45:30.423Z,66.94
2023-05-19T05:47:58.518Z,66.62
2023-05-19T05:50:25.945Z,66.63
2023-05-19T05:52:53.955Z,66.23
2023-05-19T05:55:21.675Z,66.08
2023-05-19T05:57:50.803Z,66.25
2023-05-19T06:00:18.703Z,66.23
2023-05-19T06:02:50.793Z,66.51
2023-05-19T06:05:18.688Z,66.80
2023-05-19T06:07:46.884Z,67.00
2023-05-19T06:10:17.398Z,67.15
2023-05-19T06:12:44.443Z,67.30
2023-05-19T06:15:11.479Z,67.53
2023-05-19T06:17:48.468Z,67.21
2023-05-19T06:20:16.434Z,67.02
2023-05-19T06:22:43.524Z,67.25
2023-05-19T06:25:10.819Z,67.15
2023-05-19T06:27:37.578Z,66.63
2023-05-19T06:30:04.953Z,66.83
2023-05-19T06:32:35.615Z,66.69
2023-05-19T06:35:02.523Z,66.13
2023-05-19T06:37:29.551Z,65.96
2023-05-19T06:39:57.243Z,66.24
2023-05-19T06:42:25.465Z,66.24
2023-05-19T06:45:07.534Z,66.25
2023-05-19T06:47:34.378Z,66.21
2023-05-19T06:50:01.657Z,65.48
2023-05-19T06:52:30.946Z,64.82
2023-05-19T06:54:58.189Z,64.92
2023-05-19T06:57:25.018Z,64.36
2023-05-19T06:59:51.799Z,63.04
2023-05-19T07:02:18.870Z,62.84
2023-05-19T07:04:46.062Z,62.58
2023-05-19T07:07:13.819Z,61.30
2023-05-19T07:09:40.770Z,61.46
2023-05-19T07:12:08.246Z,61.75
2023-05-19T07:14:36.684Z,61.50
2023-05-19T07:17:03.549Z,60.83
2023-05-19T07:19:31.415Z,60.49
2023-05-19T07:21:59.501Z,59.68
2023-05-19T07:24:27.662Z,59.40
2023-05-19T07:26:54.414Z,59.22
2023-05-19T07:29:21.152Z,58.44
2023-05-19T07:31:48.392Z,57.04
2023-05-19T07:34:15.368Z,56.59
2023-05-19T07:36:42.219Z,56.84
2023-05-19T07:39:09.109Z,57.21
2023-05-19T07:41:36.549Z,56.90
2023-05-19T07:44:07.910Z,56.28
2023-05-19T07:46:35.660Z,56.28
2023-05-19T07:49:02.523Z,56.07
2023-05-19T07:51:29.399Z,55.44
2023-05-19T07:53:57.450Z,55.11
2023-05-19T07:56:25.023Z,55.30
2023-05-19T07:58:51.955Z,55.19
2023-05-19T08:01:18.680Z,55.42
2023-05-19T08:03:45.472Z,55.61
2023-05-19T08:06:12.281Z,55.20
2023-05-19T08:08:39.504Z,54.39
2023-05-19T08:11:06.782Z,54.17
2023-05-19T08:13:34.798Z,53.94
2023-05-19T08:16:01.704Z,54.06
2023-05-19T08:18:28.776Z,52.46
2023-05-19T08:20:55.891Z,51.44
2023-05-19T08:23:23.094Z,50.95
2023-05-19T08:25:49.777Z,51.69
2023-05-19T08:28:17.206Z,52.26
2023-05-19T08:30:43.987Z,52.38
2023-05-19T08:33:10.788Z,53.36
2023-05-19T08:35:38.161Z,54.49
2023-05-19T08:38:04.894Z,54.50
2023-05-19T08:40:34.744Z,54.29
2023-05-19T08:43:03.817Z,53.80
2023-05-19T08:45:31.610Z,53.40
2023-05-19T08:47:58.549Z,53.38
2023-05-19T08:50:30.850Z,53.61
2023-05-19T08:56:10.745Z,54.38
2023-05-19T08:58:44.124Z,54.47
2023-05-19T09:01:15.199Z,54.80
2023-05-19T09:03:43.356Z,55.16
2023-05-19T09:06:14.248Z,55.48
2023-05-19T09:08:42.435Z,54.74
2023-05-19T09:11:10.881Z,54.20
2023-05-19T09:13:38.420Z,54.05
2023-05-19T09:16:05.628Z,52.22
2023-05-19T09:18:32.508Z,48.39
2023-05-19T09:21:03.137Z,46.99
2023-05-19T09:23:33.635Z,48.17
2023-05-19T09:26:07.428Z,47.84
2023-05-19T09:28:36.908Z,48.12
2023-05-19T09:31:11.301Z,47.85
2023-05-19T09:33:41.011Z,48.00
2023-05-19T09:36:10.943Z,49.87
2023-05-19T09:38:39.353Z,49.30
2023-05-19T09:41:07.956Z,47.95
2023-05-19T09:43:35.479Z,48.41
2023-05-19T09:46:07.299Z,50.17
2023-05-19T09:48:37.895Z,51.51
2023-05-19T09:51:08.138Z,51.99
2023-05-19T09:53:35.543Z,52.20
2023-05-19T09:56:04.265Z,52.52
2023-05-19T09:58:35.365Z,52.95
2023-05-19T10:01:03.849Z,52.73
2023-05-19T10:03:33.118Z,53.17
2023-05-19T10:06:01.644Z,53.63
2023-05-19T10:08:30.753Z,54.15
2023-05-19T10:10:58.496Z,54.29
2023-05-19T10:13:26.005Z,53.94
2023-05-19T10:15:59.032Z,53.93
2023-05-19T10:18:29.480Z,53.78
2023-05-19T10:20:57.997Z,53.61
2023-05-19T10:23:25.649Z,52.70
2023-05-19T10:25:56.675Z,52.42
2023-05-19T10:28:28.157Z,51.34
2023-05-19T10:31:01.527Z,51.48
2023-05-19T10:33:39.544Z,51.24
2023-05-19T10:36:25.872Z,51.11
2023-05-19T10:39:22.344Z,51.02
2023-05-19T10:42:17.134Z,49.62
2023-05-19T10:45:13.230Z,48.56
2023-05-19T10:47:44.289Z,48.72
2023-05-19T10:50:11.806Z,49.76
2023-05-19T10:52:39.818Z,50.61
2023-05-19T10:55:17.776Z,49.84
2023-05-19T10:57:57.058Z,48.88
2023-05-19T11:00:28.814Z,47.91
2023-05-19T11:03:15.680Z,48.29
2023-05-19T11:05:45.602Z,49.16
2023-05-19T11:08:13.457Z,49.43
2023-05-19T11:10:44.733Z,49.60
2023-05-19T11:13:20.009Z,50.07
2023-05-19T11:15:46.965Z,51.06
2023-05-19T11:18:17.705Z,52.64
2023-05-19T11:20:55.543Z,53.14
2023-05-19T11:23:26.076Z,52.86
2023-05-19T11:25:55.883Z,52.45
2023-05-19T11:28:28.275Z,53.66
2023-05-19T11:30:57.953Z,54.25
2023-05-19T11:33:27.919Z,54.80
2023-05-19T11:35:58.623Z,55.64
2023-05-19T11:38:26.631Z,55.47
2023-05-19T11:40:54.527Z,55.16
2023-05-19T11:43:26.199Z,55.29
2023-05-19T11:45:56.587Z,56.10
2023-05-19T11:48:25.037Z,57.37
2023-05-19T11:50:52.612Z,56.70
2023-05-19T11:53:20.141Z,56.80
2023-05-19T11:55:48.987Z,57.95
2023-05-19T11:58:16.824Z,58.76
2023-05-19T12:00:47.698Z,59.23
2023-05-19T12:03:15.112Z,59.81
2023-05-19T12:05:52.810Z,59.46
2023-05-19T12:08:21.744Z,58.91
2023-05-19T12:10:52.039Z,59.58
2023-05-19T12:13:19.557Z,60.32
2023-05-19T12:15:46.388Z,59.87
2023-05-19T12:18:13.224Z,59.40
2023-05-19T12:20:40.337Z,59.70
2023-05-19T12:23:07.842Z,59.88
2023-05-19T12:25:35.192Z,59.33
2023-05-19T12:28:06.071Z,59.37
2023-05-19T12:30:34.773Z,58.01
2023-05-19T12:33:03.319Z,57.16
2023-05-19T12:35:34.058Z,57.67
2023-05-19T12:38:05.550Z,58.21
2023-05-19T12:40:35.076Z,58.73
2023-05-19T12:43:02.614Z,60.07
2023-05-19T12:45:37.282Z,61.13
2023-05-19T12:48:06.918Z,61.00
2023-05-19T12:50:34.773Z,59.76
2023-05-19T12:53:02.442Z,59.16
2023-05-19T12:55:29.895Z,58.38
2023-05-19T12:57:58.543Z,58.99
2023-05-19T13:00:28.716Z,60.45
2023-05-19T13:03:05.134Z,61.56
2023-05-19T13:05:37.895Z,62.09
2023-05-19T13:08:09.292Z,62.23
2023-05-19T13:10:37.800Z,63.19
2023-05-19T13:13:05.600Z,63.88
2023-05-19T13:15:34.637Z,64.92
2023-05-19T13:18:03.616Z,66.16
2023-05-19T13:20:30.662Z,69.06
2023-05-19T13:22:57.661Z,69.94
2023-05-19T13:25:24.995Z,70.29
2023-05-19T13:27:51.944Z,70.94
2023-05-19T13:30:22.693Z,72.33
2023-05-19T13:32:49.890Z,74.39
2023-05-19T13:35:16.740Z,74.79
2023-05-19T13:37:43.692Z,76.31
2023-05-19T13:40:11.254Z,77.95
2023-05-19T13:42:38.176Z,78.12
2023-05-19T13:45:05.553Z,77.62
2023-05-19T13:47:32.575Z,77.12
2023-05-19T13:49:59.415Z,77.00
2023-05-19T13:52:28.951Z,77.47
2023-05-19T13:54:57.536Z,77.18
2023-05-19T13:57:26.448Z,76.89
2023-05-19T14:00:01.972Z,76.77
2023-05-19T14:02:39.941Z,76.34
2023-05-19T14:05:08.245Z,77.28
2023-05-19T14:07:35.498Z,77.41
2023-05-19T14:10:05.482Z,76.89
2023-05-19T14:12:41.566Z,76.43
2023-05-19T14:15:19.699Z,76.51
2023-05-19T14:17:46.523Z,76.50
2023-05-19T14:20:13.359Z,76.66
2023-05-19T14:22:40.544Z,76.04
2023-05-19T14:25:07.810Z,75.52
2023-05-19T14:27:34.551Z,75.31
2023-05-19T14:30:01.470Z,74.93
2023-05-19T14:32:30.239Z,73.95
2023-05-19T14:34:58.139Z,71.92
2023-05-19T14:37:28.914Z,71.15
2023-05-19T14:39:57.544Z,71.61
2023-05-19T14:42:25.047Z,72.01
2023-05-19T14:44:51.816Z,72.48
2023-05-19T14:47:18.479Z,73.68
2023-05-19T14:49:45.177Z,73.72
2023-05-19T14:52:11.948Z,75.75
2023-05-19T14:54:39.165Z,77.80
2023-05-19T14:57:07.708Z,80.40
2023-05-19T14:59:37.834Z,82.31
2023-05-19T15:02:05.417Z,83.18
2023-05-19T15:04:32.180Z,83.63
2023-05-19T15:09:32.447Z,84.26
2023-05-19T15:12:01.251Z,84.44
2023-05-19T15:14:30.106Z,85.00
2023-05-19T15:16:57.797Z,85.60
2023-05-19T15:19:26.398Z,86.16
2023-05-19T15:21:53.324Z,86.10
2023-05-19T15:24:20.189Z,86.57
2023-05-19T15:26:47.587Z,86.45
2023-05-19T15:29:14.387Z,85.93
2023-05-19T15:31:41.478Z,85.97
2023-05-19T15:34:08.613Z,85.99
2023-05-19T15:36:35.615Z,86.18
2023-05-19T15:39:03.745Z,86.34
2023-05-19T15:41:30.757Z,85.69
2023-05-19T15:44:00.203Z,84.80
2023-05-19T15:46:27.444Z,84.37
2023-05-19T15:48:54.818Z,83.76
2023-05-19T15:51:21.728Z,83.92
2023-05-19T15:53:48.584Z,84.89
2023-05-19T15:56:15.456Z,85.58
2023-05-19T15:58:42.312Z,85.37
2023-05-19T16:01:09.117Z,85.09
2023-05-19T16:03:36.154Z,84.88
2023-05-19T16:06:03.653Z,85.12
2023-05-19T16:08:30.515Z,85.36
2023-05-19T16:10:57.401Z,85.84
2023-05-19T16:13:24.858Z,86.15
2023-05-19T16:15:52.594Z,86.68
2023-05-19T16:18:19.749Z,86.31
2023-05-19T16:20:46.498Z,85.82
2023-05-19T16:23:13.253Z,85.70
2023-05-19T16:25:40.047Z,85.59
2023-05-19T16:28:06.958Z,85.54
2023-05-19T16:30:34.610Z,84.90
2023-05-19T16:33:01.811Z,84.61
2023-05-19T16:35:29.695Z,83.68
2023-05-19T16:37:57.993Z,83.00
2023-05-19T16:40:24.874Z,82.76
2023-05-19T16:42:54.676Z,82.70
2023-05-19T16:45:21.475Z,82.61
2023-05-19T16:47:48.372Z,82.33
2023-05-19T16:50:15.288Z,82.22
2023-05-19T16:52:44.308Z,81.47
2023-05-19T16:55:11.191Z,80.84
2023-05-19T16:57:38.431Z,80.82
2023-05-19T17:00:05.799Z,80.47
2023-05-19T17:02:32.801Z,80.31
2023-05-19T17:04:59.739Z,80.29
2023-05-19T17:07:29.106Z,81.00
2023-05-19T17:09:56.234Z,81.60
2023-05-19T17:12:23.276Z,81.87
2023-05-19T17:14:52.266Z,82.20
2023-05-19T17:17:19.469Z,82.30
2023-05-19T17:19:46.918Z,82.08
2023-05-19T17:22:13.763Z,81.92
2023-05-19T17:24:41.280Z,82.21
2023-05-19T17:27:08.066Z,81.98
2023-05-19T17:29:34.911Z,82.19
2023-05-19T17:32:04.189Z,82.29
2023-05-19T17:34:30.956Z,82.82
2023-05-19T17:36:57.802Z,82.96
2023-05-19T17:39:24.807Z,82.69
2023-05-19T17:41:52.598Z,82.66
2023-05-19T17:45:16.150Z,82.93
2023-05-19T17:47:47.399Z,82.47
2023-05-19T17:50:23.492Z,82.38
2023-05-19T17:52:54.879Z,82.56
2023-05-19T17:56:03.097Z,82.53
2023-05-19T17:58:36.563Z,82.69
2023-05-19T18:01:03.530Z,83.18
2023-05-19T18:03:31.882Z,83.06
2023-05-19T18:06:02.736Z,83.18
2023-05-19T18:08:32.959Z,83.38
2023-05-19T18:11:00.823Z,83.81
2023-05-19T18:13:28.096Z,83.69
2023-05-19T18:15:57.054Z,83.71
2023-05-19T18:18:25.048Z,84.29
2023-05-19T18:20:52.213Z,84.22
2023-05-19T18:23:20.590Z,84.37
2023-05-19T18:25:53.292Z,84.48
2023-05-19T18:28:20.260Z,84.73
2023-05-19T18:30:47.164Z,84.93
2023-05-19T18:33:14.676Z,84.95
2023-05-19T18:35:42.926Z,85.04
2023-05-19T18:38:09.722Z,85.42
2023-05-19T18:40:39.644Z,85.57
2023-05-19T18:43:06.638Z,85.47
2023-05-19T18:45:33.437Z,85.46
2023-05-19T18:48:00.312Z,85.64
2023-05-19T18:50:27.586Z,86.25
2023-05-19T18:52:54.360Z,86.73
2023-05-19T18:55:21.087Z,87.33
2023-05-19T18:57:47.859Z,87.80
2023-05-19T19:00:15.016Z,88.13
2023-05-19T19:02:41.833Z,88.45
2023-05-19T19:05:11.496Z,88.84
2023-05-19T19:07:43.083Z,88.53
2023-05-19T19:10:10.107Z,88.81
2023-05-19T19:12:37.140Z,88.83
2023-05-19T19:15:04.491Z,89.01
2023-05-19T19:17:31.479Z,88.78
2023-05-19T19:19:58.302Z,89.03
2023-05-19T19:22:25.185Z,90.19
2023-05-19T19:24:51.946Z,91.05
2023-05-19T19:27:20.871Z,91.35
2023-05-19T19:29:47.653Z,91.57
2023-05-19T19:32:14.481Z,91.47
2023-05-19T19:34:41.375Z,91.64
2023-05-19T19:37:08.205Z,91.76
2023-05-19T19:39:34.958Z,91.90
2023-05-19T19:42:01.700Z,92.35
2023-05-19T19:44:28.451Z,92.07
2023-05-19T19:46:55.355Z,92.27
2023-05-19T19:49:22.130Z,92.04
2023-05-19T19:51:48.876Z,92.58
2023-05-19T19:54:15.608Z,92.87
2023-05-19T19:56:42.325Z,92.70
2023-05-19T19:59:09.086Z,93.79
2023-05-19T20:01:35.887Z,94.28
2023-05-19T20:04:04.228Z,94.17
2023-05-19T20:06:32.281Z,94.04
2023-05-19T20:08:59.485Z,93.87
2023-05-19T20:11:26.864Z,94.66
2023-05-19T20:13:53.594Z,94.88
2023-05-19T20:16:20.453Z,94.42
2023-05-19T20:18:47.179Z,94.42
2023-05-19T20:21:13.958Z,93.86
2023-05-19T20:23:40.820Z,93.84
2023-05-19T20:26:12.775Z,93.66
2023-05-19T20:28:40.532Z,93.26
2023-05-19T20:31:07.592Z,93.12
2023-05-19T20:33:34.676Z,92.79
2023-05-19T20:36:01.456Z,92.35
2023-05-19T20:38:28.241Z,92.44
2023-05-19T20:43:58.146Z,92.19
2023-05-19T20:46:24.979Z,92.02
2023-05-19T20:48:52.072Z,92.14
2023-05-19T20:51:19.283Z,91.99
2023-05-19T20:53:46.059Z,91.97
2023-05-19T20:56:13.163Z,91.18
2023-05-19T20:58:40.059Z,90.94
2023-05-19T21:01:06.909Z,91.58
2023-05-19T21:03:33.767Z,91.59
2023-05-19T21:06:00.968Z,91.80
2023-05-19T21:08:27.806Z,91.96
2023-05-19T21:10:54.582Z,92.01
2023-05-19T21:13:21.420Z,93.26
2023-05-19T21:15:49.083Z,93.53
2023-05-19T21:18:16.128Z,92.95
2023-05-19T21:20:42.904Z,93.18
2023-05-19T21:23:09.651Z,93.72
2023-05-19T21:25:36.490Z,94.11
2023-05-19T21:28:03.558Z,94.49
2023-05-19T21:30:30.504Z,94.68
2023-05-19T21:32:57.383Z,94.89
2023-05-19T21:35:24.344Z,95.36
2023-05-19T21:37:51.154Z,96.19
2023-05-19T21:40:17.927Z,95.27
2023-05-19T21:42:44.672Z,94.32
2023-05-19T21:45:11.695Z,94.54
2023-05-19T21:47:38.606Z,94.93
2023-05-19T21:50:06.349Z,95.10
2023-05-19T21:52:33.396Z,95.05
2023-05-19T21:55:00.240Z,94.85
2023-05-19T21:57:26.981Z,94.62
2023-05-19T21:59:53.770Z,94.75
2023-05-19T22:02:21.177Z,94.80
2023-05-19T22:04:48.186Z,94.92
2023-05-19T22:07:15.040Z,95.13
2023-05-19T22:09:41.840Z,95.09
2023-05-19T22:12:08.643Z,94.92
2023-05-19T22:14:35.914Z,94.77
2023-05-19T22:17:02.743Z,94.77
2023-05-19T22:19:29.711Z,95.28
2023-05-19T22:22:09.858Z,97.11
2023-05-19T22:24:39.797Z,96.88
2023-05-19T22:27:09.873Z,96.87
2023-05-19T22:29:38.559Z,97.17
2023-05-19T22:32:07.703Z,96.22
2023-05-19T22:34:34.576Z,96.18
2023-05-19T22:37:01.919Z,95.78
2023-05-19T22:39:28.682Z,95.30
2023-05-19T22:41:55.547Z,95.28
2023-05-19T22:44:22.297Z,95.27
2023-05-19T22:46:49.009Z,95.29
2023-05-19T22:49:16.016Z,95.42
2023-05-19T22:51:42.852Z,95.28
2023-05-19T22:54:10.524Z,94.96
2023-05-19T22:56:37.323Z,94.95
2023-05-19T22:59:04.042Z,94.90
2023-05-19T23:01:31.241Z,94.75
2023-05-19T23:03:58.042Z,94.16
2023-05-19T23:06:24.860Z,93.86
2023-05-19T23:09:00.239Z,93.89
2023-05-19T23:11:26.970Z,94.22
2023-05-19T23:13:53.690Z,94.94
2023-05-19T23:16:20.737Z,95.70
2023-05-19T23:18:47.517Z,95.93
2023-05-19T23:21:14.280Z,96.24
2023-05-19T23:23:41.003Z,97.03
2023-05-19T23:26:07.781Z,97.26
2023-05-19T23:28:34.733Z,97.06
2023-05-19T23:31:01.646Z,96.94
2023-05-19T23:33:28.449Z,97.50
2023-05-19T23:35:55.278Z,98.03
2023-05-19T23:38:22.020Z,98.62
2023-05-19T23:40:48.781Z,98.80
2023-05-19T23:43:15.678Z,99.04
2023-05-19T23:45:42.848Z,98.96
2023-05-19T23:48:09.638Z,98.80
2023-05-19T23:50:36.670Z,98.62
2023-05-19T23:53:03.399Z,98.37
2023-05-19T23:55:30.173Z,98.49
2023-05-19T23:57:56.925Z,98.55
